Orbital elements of EKRAN 2 DEB
| Launched | 19 September 1977 |
| Flight ended | – |
| Launch site | Tyuratam Missile and Space Center, Kazakhstan (Also known as Baikonur Cosmodrome) |
| Owner | Commonwealth of Independent States (former USSR) |
| NORAD ID | 59986 |
| Date fetched |
Epoch osculation |
Inc. [°] |
Ecc. | RA asc node [hr] |
Arg Peri. [°] |
Mean anom [°] |
Mean motion [rev/day] |
Abs. mag |
| Date fetched |
Epoch osculation |
Inc. [°] |
Ecc. | RA asc node [hr] |
Arg Peri. [°] |
Mean anom [°] |
Mean motion [rev/day] |
Abs. mag |
| 2026 May 05 17:57 | 2026 May 05 11:34:41 | 3.8838 | 0.00425 | 18.1020 | 116.6062 | 111.6285 | 1.00941 | – |
| 2026 May 04 17:57 | 2026 Apr 30 12:07:04 | 3.8971 | 0.00426 | 18.1072 | 116.1659 | 111.6285 | 1.00941 | – |
| 2026 May 03 17:57 | 2026 Apr 30 12:07:04 | 3.8971 | 0.00426 | 18.1072 | 116.1659 | 111.6285 | 1.00941 | – |
| 2026 May 02 17:57 | 2026 Apr 30 12:07:04 | 3.8971 | 0.00426 | 18.1072 | 116.1659 | 111.6285 | 1.00941 | – |
| 2026 May 01 17:56 | 2026 Apr 30 12:07:04 | 3.8971 | 0.00426 | 18.1072 | 116.1659 | 111.6285 | 1.00941 | – |
| 2026 Apr 30 17:56 | 2026 Apr 30 12:07:04 | 3.8971 | 0.00426 | 18.1072 | 116.1659 | 111.6285 | 1.00941 | – |
| 2026 Apr 29 17:57 | 2026 Apr 23 14:02:55 | 3.9150 | 0.00426 | 18.1142 | 115.6437 | 111.6285 | 1.00941 | – |
| 2026 Apr 28 17:56 | 2026 Apr 23 14:02:55 | 3.9150 | 0.00426 | 18.1142 | 115.6437 | 111.6285 | 1.00941 | – |
| 2026 Apr 27 17:58 | 2026 Apr 23 14:02:55 | 3.9150 | 0.00426 | 18.1142 | 115.6437 | 111.6285 | 1.00941 | – |
| 2026 Apr 26 17:58 | 2026 Apr 23 14:02:55 | 3.9150 | 0.00426 | 18.1142 | 115.6437 | 111.6285 | 1.00941 | – |
| 2026 Apr 25 17:58 | 2026 Apr 23 14:02:55 | 3.9150 | 0.00426 | 18.1142 | 115.6437 | 111.6285 | 1.00941 | – |
| 2026 Apr 24 17:59 | 2026 Apr 23 14:02:55 | 3.9150 | 0.00426 | 18.1142 | 115.6437 | 111.6285 | 1.00941 | – |
| 2026 Apr 23 17:57 | 2026 Apr 18 22:45:41 | 3.9267 | 0.00427 | 18.1189 | 115.1671 | 111.6285 | 1.00941 | – |
| 2026 Apr 22 17:57 | 2026 Apr 18 22:45:41 | 3.9267 | 0.00427 | 18.1189 | 115.1671 | 111.6285 | 1.00941 | – |
| 2026 Apr 21 17:57 | 2026 Apr 18 22:45:41 | 3.9267 | 0.00427 | 18.1189 | 115.1671 | 111.6285 | 1.00941 | – |
| 2026 Apr 20 17:57 | 2026 Apr 18 22:45:41 | 3.9267 | 0.00427 | 18.1189 | 115.1671 | 111.6285 | 1.00941 | – |
| 2026 Apr 19 17:58 | 2026 Apr 18 22:45:41 | 3.9267 | 0.00427 | 18.1189 | 115.1671 | 111.6285 | 1.00941 | – |
| 2026 Apr 18 17:56 | 2026 Apr 12 22:57:00 | 3.9421 | 0.00426 | 18.1250 | 114.4983 | 111.6285 | 1.00941 | – |
| 2026 Apr 16 17:57 | 2026 Apr 12 22:57:00 | 3.9421 | 0.00426 | 18.1250 | 114.4983 | 111.6285 | 1.00941 | – |
| 2026 Apr 14 17:57 | 2026 Apr 12 22:57:00 | 3.9421 | 0.00426 | 18.1250 | 114.4983 | 111.6285 | 1.00941 | – |
| 2026 Apr 13 17:57 | 2026 Apr 12 22:57:00 | 3.9421 | 0.00426 | 18.1250 | 114.4983 | 111.6285 | 1.00941 | – |
| 2026 Apr 12 17:57 | 2026 Apr 08 00:48:53 | 3.9551 | 0.00425 | 18.1299 | 113.9167 | 111.6285 | 1.00941 | – |
| 2026 Apr 11 17:57 | 2026 Apr 08 00:48:53 | 3.9551 | 0.00425 | 18.1299 | 113.9167 | 111.6285 | 1.00941 | – |
| 2026 Apr 10 17:58 | 2026 Apr 08 00:48:53 | 3.9551 | 0.00425 | 18.1299 | 113.9167 | 111.6285 | 1.00941 | – |
| 2026 Apr 09 18:01 | 2026 Apr 08 00:48:53 | 3.9551 | 0.00425 | 18.1299 | 113.9167 | 111.6285 | 1.00941 | – |
| 2026 Apr 08 17:57 | 2026 Apr 08 00:48:53 | 3.9551 | 0.00425 | 18.1299 | 113.9167 | 111.6285 | 1.00941 | – |